Airfield :







YOU CAN JOIN US ON...

 
LOGIN :

Register | Disclaimer

   EN    FR    IT 

 









Legend :    VFR   Marginal VFR   IFR   Intensive IFR   Very Intensive IFR
Visi :
Ceiling :
>= 8 km
>= 3000ft
5 to 8 km
1000 to 3000 ft
1500m to 5 km
500 to 1000 ft
800 to 1500m
200 to 500 ft
< 800m
< 200 ft
Symbols :   Thunderstorms  Fog  Heavy snow  Heavy precipitations  Wind > 20 kt






- Airport Elevation : 124 ft
- IATA code : YGV


CYGV - Havre St Pierre

CURRENT METAR :
  • 311723Z AUTO 16005KT 9SM -RA OVC039 08/05 A2975 RMK SLP079

EXPIRED METARs :
  • 311702Z AUTO 16005KT 9SM SCT039 BKN050 OVC070 08/05 A2976 RMK SLP080
  • 311606Z AUTO 14006KT 9SM -RA OVC060 08/05 A2976 RMK SLP080
  • 311553Z AUTO 14006KT 9SM OVC065 08/05 A2976 RMK SLP081
  • 311530Z AUTO 14005KT 9SM -RA SCT039 OVC065 09/05 A2976 RMK SLP082
  • 311500Z AUTO 14008KT 9SM BKN039 OVC060 10/04 A2977 RMK SLP085

TAF TAF CYGV
Valid from the 31 at 14:00 until the 01 at 02:00 UTC


311330Z 3114/0102 12010KT P6SM SCT015 OVC040
TEMPO 3114/3117 5SM -SHRA BR FEW006 BKN015 OVC040
FM311700 VRB03KT 4SM -SHRA BR SCT008 OVC010
TEMPO 3117/3121 6SM -SHRA BR FEW008 OVC012
FM312100 24010KT 2SM -DZ BR OVC008
TEMPO 3121/0101 6SM -SHRA BR SCT008 OVC012
FM010100 31008KT P6SM FEW015 BKN040 RMK FCST BASED ON AUTO OBS. NXT FCST BY 312000Z
CZUL FIR / North America



MET'MAP, your aeronautical weather chart ! - Copyright ORBIFLY December 2007 - Disclaimer

ORBIFLY MET'MAP TEAM :

Programming & Development : Alexandra Zaïnal
Concept & original design : Baudouin d'Aumeries
Assistance for programming : Marc-Olivier Méhu
Technical & hardware support : Manuel Goepfert

Contact : metmap@orbifly.com




SOURCES & CREDITS :

   NOAA